Time;durP1;ratioP1;P1;durP2;ratioP2;P2;SDS_P1;SDS_P2;PMS_P1;PMS_P2;Temp;Humidity;BMP_temperature;BMP_pressure;BME280_temperature;BME280_humidity;BME280_pressure;Samples;Min_cycle;Max_cycle;Signal;HPM_P1;HPM_P2
2022/12/30 00:02:04;;;;;;;42.92;27.30;;;;;;;4.54;71.86;95577.56;4993349;28;20043;-78
2022/12/30 00:04:29;;;;;;;37.50;23.65;;;;;;;4.58;71.78;95581.66;4964966;28;20035;-78
2022/12/30 00:06:55;;;;;;;37.50;23.52;;;;;;;4.60;71.77;95566.16;4961225;28;20042;-78
2022/12/30 00:09:20;;;;;;;28.45;18.60;;;;;;;4.72;71.71;95585.31;4960643;28;20023;-78
2022/12/30 00:11:46;;;;;;;23.20;15.25;;;;;;;4.65;72.03;95590.78;4962583;28;20035;-78
2022/12/30 00:34:21;;;;;;;30.10;20.35;;;;;;;4.42;72.77;95603.84;4962388;28;20128;-78
2022/12/30 00:36:48;;;;;;;27.70;19.52;;;;;;;4.42;72.90;95609.81;4964520;28;20057;-79
2022/12/30 00:39:13;;;;;;;30.55;20.83;;;;;;;4.35;72.95;95603.31;4938779;28;20468;-77
2022/12/30 00:44:22;;;;;;;35.30;23.30;;;;;;;4.26;73.32;95608.84;4953961;28;20050;-78
2022/12/30 00:46:48;;;;;;;34.20;22.90;;;;;;;4.25;73.32;95607.19;4969100;28;20022;-78
2022/12/30 00:57:25;;;;;;;35.38;24.35;;;;;;;4.33;72.60;95612.84;4970466;28;20135;-78
2022/12/30 00:59:50;;;;;;;30.88;22.38;;;;;;;4.32;72.69;95611.19;4955059;28;20050;-77
2022/12/30 01:02:16;;;;;;;32.30;21.27;;;;;;;4.43;72.38;95615.81;4969500;28;20067;-78
2022/12/30 01:04:41;;;;;;;33.58;21.20;;;;;;;4.41;71.86;95608.16;4955592;28;20027;-78
2022/12/30 01:07:07;;;;;;;30.67;20.63;;;;;;;4.29;72.29;95602.75;4972076;28;20317;-78
2022/12/30 01:09:35;;;;;;;29.05;20.40;;;;;;;4.20;72.49;95602.25;4971566;28;20031;-78
2022/12/30 01:12:07;;;;;;;29.15;20.00;;;;;;;4.23;72.35;95609.84;4969134;28;20033;-78
2022/12/30 01:14:39;;;;;;;27.27;18.52;;;;;;;4.18;72.35;95601.50;4971226;28;20417;-78
2022/12/30 01:17:05;;;;;;;27.48;19.48;;;;;;;4.25;72.23;95612.34;4938713;28;20523;-78
2022/12/30 01:19:30;;;;;;;29.50;19.05;;;;;;;4.21;72.27;95603.13;4970441;28;20264;-78
2022/12/30 01:21:55;;;;;;;27.55;17.80;;;;;;;4.24;71.76;95601.22;4968764;28;20023;-78
2022/12/30 01:24:21;;;;;;;26.17;17.75;;;;;;;4.17;72.13;95596.41;4972571;28;20035;-78
2022/12/30 01:26:47;;;;;;;27.10;18.40;;;;;;;4.04;72.29;95593.59;4953867;28;20050;-78
2022/12/30 01:29:26;;;;;;;26.05;17.45;;;;;;;3.93;72.88;95596.63;4971518;28;20038;-78
2022/12/30 01:31:55;;;;;;;28.73;18.85;;;;;;;4.11;72.21;95599.28;4969406;28;20023;-78
2022/12/30 01:34:21;;;;;;;29.80;19.42;;;;;;;3.78;73.13;95592.16;4967200;28;20472;-78
2022/12/30 01:36:46;;;;;;;25.38;18.00;;;;;;;3.88;73.33;95588.28;4954694;28;20035;-78
2022/12/30 01:39:12;;;;;;;23.88;15.80;;;;;;;3.78;72.90;95589.56;4954920;28;20390;-78
2022/12/30 01:41:37;;;;;;;24.52;16.90;;;;;;;3.62;73.32;95580.88;4968952;28;20613;-78
2022/12/30 01:44:40;;;;;;;22.33;14.65;;;;;;;3.71;73.55;95585.63;4971482;28;20034;-78
2022/12/30 01:47:06;;;;;;;18.02;12.63;;;;;;;3.65;73.69;95580.72;4969931;28;20035;-78
2022/12/30 01:49:32;;;;;;;20.95;13.93;;;;;;;3.51;74.52;95569.34;4970610;28;20046;-77
2022/12/30 01:51:57;;;;;;;21.67;13.65;;;;;;;3.65;74.03;95573.03;4968258;28;20026;-78
2022/12/30 01:54:23;;;;;;;21.33;13.80;;;;;;;3.51;74.02;95571.03;4954015;28;20449;-78
2022/12/30 01:56:48;;;;;;;29.88;20.23;;;;;;;3.56;73.78;95582.78;4969497;28;20026;-78
2022/12/30 01:59:14;;;;;;;26.45;17.95;;;;;;;3.77;73.47;95588.75;4969979;28;20035;-78
2022/12/30 02:01:40;;;;;;;22.63;14.48;;;;;;;3.73;73.52;95596.66;4934224;28;20197;-78
2022/12/30 02:04:08;;;;;;;24.10;15.13;;;;;;;3.61;73.91;95587.75;4936956;28;20379;-78
2022/12/30 02:07:09;;;;;;;22.27;13.68;;;;;;;3.59;73.86;95586.97;4967708;28;20183;-78
2022/12/30 02:09:35;;;;;;;22.35;13.95;;;;;;;3.44;74.00;95583.34;4965465;28;20421;-78
2022/12/30 02:12:00;;;;;;;19.85;12.88;;;;;;;3.42;74.28;95569.72;4966215;28;20453;-78
2022/12/30 02:14:27;;;;;;;22.83;13.60;;;;;;;3.62;74.19;95576.56;4970814;28;20057;-79
2022/12/30 02:17:00;;;;;;;23.42;13.98;;;;;;;3.45;74.71;95579.03;4952979;28;20042;-78
2022/12/30 02:20:03;;;;;;;21.50;13.57;;;;;;;3.52;74.81;95576.13;4954344;28;20169;-79
2022/12/30 02:22:41;;;;;;;20.30;13.00;;;;;;;3.60;74.86;95585.25;4967681;28;20546;-79
2022/12/30 02:25:28;;;;;;;19.85;14.05;;;;;;;3.56;74.64;95587.09;4968068;28;20038;-78
2022/12/30 02:28:13;;;;;;;18.60;12.82;;;;;;;3.49;74.58;95578.84;4969957;28;20077;-78
2022/12/30 02:31:16;;;;;;;25.02;16.48;;;;;;;3.56;74.32;95581.97;4968851;28;20058;-78
2022/12/30 02:33:53;;;;;;;25.10;14.20;;;;;;;3.55;74.67;95583.69;4967716;28;20117;-78
2022/12/30 02:36:26;;;;;;;21.40;11.70;;;;;;;3.53;74.60;95572.66;4970103;28;20034;-78
2022/12/30 02:39:15;;;;;;;16.55;10.23;;;;;;;3.69;74.27;95572.00;4953413;28;20097;-78
2022/12/30 02:44:38;;;;;;;26.17;17.80;;;;;;;3.46;74.46;95573.00;4968975;28;20430;-78
2022/12/30 02:47:20;;;;;;;29.90;18.95;;;;;;;3.49;74.41;95581.41;4968009;28;20034;-78
2022/12/30 02:52:14;;;;;;;20.48;13.85;;;;;;;3.32;74.81;95565.88;4968990;28;20039;-78
2022/12/30 02:52:35;;;;;;;21.85;13.63;;;;;;;3.42;74.64;95572.28;4965978;28;20477;-78
2022/12/30 02:55:00;;;;;;;19.60;11.75;;;;;;;3.29;75.00;95563.44;4951938;28;20031;-78
2022/12/30 02:57:31;;;;;;;14.77;10.50;;;;;;;3.21;74.41;95550.09;4952443;28;20105;-78
2022/12/30 03:06:22;;;;;;;26.33;17.45;;;;;;;3.21;75.05;95565.50;4968023;28;20528;-78
2022/12/30 03:08:48;;;;;;;19.65;12.63;;;;;;;3.13;75.40;95566.66;4982522;28;20493;-78
2022/12/30 03:11:17;;;;;;;19.15;13.02;;;;;;;3.01;74.92;95553.47;4965345;28;20023;-78
2022/12/30 03:13:56;;;;;;;16.20;10.40;;;;;;;2.96;75.25;95571.66;4952382;28;20045;-78
2022/12/30 03:16:25;;;;;;;13.88;9.23;;;;;;;3.08;74.56;95581.41;4965412;28;20308;-78
2022/12/30 03:18:50;;;;;;;15.93;9.93;;;;;;;2.98;73.93;95564.72;4968446;28;20073;-78
2022/12/30 03:21:16;;;;;;;12.68;8.35;;;;;;;2.92;74.13;95575.22;4965180;28;20055;-78
2022/12/30 03:29:12;;;;;;;12.90;8.73;;;;;;;3.03;73.89;95578.19;4954506;28;20662;-78
2022/12/30 03:31:38;;;;;;;13.73;8.65;;;;;;;2.83;74.25;95571.28;4948593;28;20059;-78
2022/12/30 03:34:03;;;;;;;13.25;9.30;;;;;;;2.96;74.50;95581.91;4935483;28;20042;-78
2022/12/30 03:36:31;;;;;;;14.38;8.55;;;;;;;2.96;73.83;95575.94;4952737;28;20041;-78
2022/12/30 03:39:02;;;;;;;13.43;8.85;;;;;;;2.81;73.73;95578.22;4951890;28;20485;-78
2022/12/30 03:41:28;;;;;;;13.95;9.13;;;;;;;2.89;72.89;95583.03;4951632;28;20022;-78
2022/12/30 03:43:53;;;;;;;12.93;8.82;;;;;;;2.63;73.51;95594.34;4955588;28;20039;-78
2022/12/30 03:46:20;;;;;;;18.33;11.00;;;;;;;2.53;74.40;95586.19;4945783;28;20030;-78
2022/12/30 03:48:45;;;;;;;13.52;8.70;;;;;;;2.51;73.68;95597.38;4965785;28;20523;-78
2022/12/30 03:51:10;;;;;;;14.15;8.30;;;;;;;2.52;73.56;95589.66;4954034;28;20031;-77
2022/12/30 03:53:36;;;;;;;13.02;8.68;;;;;;;2.50;73.54;95596.56;4937655;28;20038;-77
2022/12/30 03:56:01;;;;;;;15.82;8.63;;;;;;;2.44;74.22;95602.75;4953328;29;20027;-77
2022/12/30 03:58:27;;;;;;;15.50;9.63;;;;;;;2.30;74.47;95599.88;4953641;29;20490;-77
2022/12/30 04:00:52;;;;;;;12.18;8.98;;;;;;;2.32;74.34;95604.97;4953381;29;20035;-77
2022/12/30 04:03:18;;;;;;;13.35;9.18;;;;;;;2.29;74.49;95602.53;4952354;28;20106;-77
2022/12/30 04:05:43;;;;;;;16.10;9.05;;;;;;;2.32;74.46;95610.94;4952295;28;20082;-77
2022/12/30 04:08:08;;;;;;;15.27;8.80;;;;;;;2.36;74.32;95609.06;4952310;28;20407;-78
2022/12/30 04:10:34;;;;;;;12.93;9.15;;;;;;;2.31;74.73;95614.38;4955302;28;20041;-77
2022/12/30 04:12:59;;;;;;;14.10;9.52;;;;;;;2.24;74.78;95610.38;4973666;28;20033;-77
2022/12/30 04:15:25;;;;;;;14.95;9.98;;;;;;;2.26;74.48;95616.28;4972559;28;20421;-78
2022/12/30 04:17:50;;;;;;;22.38;15.00;;;;;;;2.12;74.63;95623.66;4971091;28;20456;-77
2022/12/30 04:20:16;;;;;;;19.35;12.85;;;;;;;2.03;74.93;95609.44;4971446;28;20230;-77
2022/12/30 04:22:41;;;;;;;21.33;13.80;;;;;;;1.98;74.67;95611.34;4971648;28;20031;-77
2022/12/30 04:25:07;;;;;;;17.48;10.63;;;;;;;1.99;75.15;95618.13;4971524;28;20035;-75
2022/12/30 04:27:32;;;;;;;16.08;9.80;;;;;;;1.94;74.70;95615.72;4971549;28;20401;-77
2022/12/30 04:29:58;;;;;;;16.15;10.05;;;;;;;2.04;74.41;95620.53;4956197;29;20046;-78
2022/12/30 04:32:23;;;;;;;16.02;10.55;;;;;;;2.00;74.90;95627.50;4955904;28;20039;-78
2022/12/30 04:34:49;;;;;;;14.75;9.63;;;;;;;2.11;74.83;95624.53;4957171;28;20031;-78
2022/12/30 04:37:14;;;;;;;20.20;11.75;;;;;;;2.05;75.19;95619.66;4956685;28;20078;-78
2022/12/30 04:39:39;;;;;;;16.65;9.77;;;;;;;2.04;75.31;95630.81;4955773;28;20110;-78
2022/12/30 04:42:05;;;;;;;14.25;9.82;;;;;;;2.06;75.80;95623.88;4955705;29;20031;-77
2022/12/30 04:44:30;;;;;;;15.20;9.25;;;;;;;2.19;75.63;95615.66;4955819;29;20035;-78
2022/12/30 04:46:56;;;;;;;16.85;10.18;;;;;;;1.99;75.78;95608.72;4955257;28;20026;-78
2022/12/30 04:49:21;;;;;;;17.63;10.18;;;;;;;2.09;75.66;95629.75;4965395;28;20066;-77
2022/12/30 04:51:47;;;;;;;15.90;10.82;;;;;;;2.02;76.40;95638.53;4957006;28;20038;-78
2022/12/30 04:54:12;;;;;;;18.25;11.30;;;;;;;1.91;76.81;95631.22;4972015;28;20035;-77
2022/12/30 04:56:38;;;;;;;18.65;12.57;;;;;;;1.85;76.98;95628.06;4974552;28;20031;-78
2022/12/30 04:59:03;;;;;;;17.77;12.00;;;;;;;1.95;77.43;95635.38;4975013;28;20031;-78
2022/12/30 05:01:28;;;;;;;15.88;11.20;;;;;;;2.13;77.42;95636.41;4964655;28;20610;-79
2022/12/30 05:03:54;;;;;;;18.35;10.73;;;;;;;1.98;77.39;95627.56;4956143;28;20494;-79
2022/12/30 05:06:19;;;;;;;17.25;10.70;;;;;;;2.04;77.73;95641.88;4955247;29;20039;-78
2022/12/30 05:08:45;;;;;;;19.52;11.25;;;;;;;2.15;77.34;95644.06;4971563;28;20042;-79
2022/12/30 05:11:10;;;;;;;16.88;10.65;;;;;;;2.19;77.09;95649.00;4972003;28;20070;-78
2022/12/30 05:13:36;;;;;;;16.88;10.48;;;;;;;2.22;76.88;95645.50;4975453;28;20039;-79
2022/12/30 05:16:01;;;;;;;15.75;9.63;;;;;;;2.27;76.93;95648.72;4966625;28;20042;-79
2022/12/30 05:18:26;;;;;;;17.33;10.93;;;;;;;2.28;77.53;95654.69;4955247;28;20039;-79
2022/12/30 05:20:52;;;;;;;15.25;9.68;;;;;;;2.31;77.73;95652.84;4960742;28;20035;-78
2022/12/30 05:26:13;;;;;;;18.05;11.20;;;;;;;2.21;78.00;95641.25;4960916;28;20158;-78
2022/12/30 05:28:38;;;;;;;16.27;10.43;;;;;;;2.44;77.58;95646.34;4975423;28;20038;-79
2022/12/30 05:31:04;;;;;;;19.38;10.73;;;;;;;2.33;77.71;95647.66;4941757;28;20414;-79
2022/12/30 05:33:29;;;;;;;17.88;11.10;;;;;;;2.37;77.33;95654.38;4955077;28;20035;-79
2022/12/30 05:35:55;;;;;;;19.25;11.00;;;;;;;2.34;78.25;95655.31;4970854;28;20094;-79
2022/12/30 05:38:20;;;;;;;16.58;10.52;;;;;;;2.40;77.91;95654.25;4969657;28;20031;-79
2022/12/30 05:40:46;;;;;;;16.90;11.63;;;;;;;2.47;77.09;95659.06;4969380;28;20456;-78
2022/12/30 05:43:11;;;;;;;17.63;10.82;;;;;;;2.46;77.03;95669.41;4974272;28;20404;-78
2022/12/30 05:45:36;;;;;;;23.02;13.73;;;;;;;2.45;77.31;95665.16;4963416;28;20473;-78
2022/12/30 05:48:02;;;;;;;22.10;14.00;;;;;;;2.49;76.86;95674.41;4955750;28;20046;-79
2022/12/30 05:50:28;;;;;;;21.65;15.10;;;;;;;2.51;77.08;95664.94;4954693;29;20039;-78
2022/12/30 05:52:53;;;;;;;18.08;12.65;;;;;;;2.55;77.04;95666.47;4955193;28;20482;-78
2022/12/30 05:55:19;;;;;;;17.60;12.30;;;;;;;2.48;76.84;95657.38;4973092;28;20042;-78
2022/12/30 05:57:44;;;;;;;16.40;11.23;;;;;;;2.61;76.35;95671.38;4975254;28;20078;-78
2022/12/30 06:00:10;;;;;;;18.38;11.82;;;;;;;2.57;76.37;95666.44;4963067;28;20065;-79
2022/12/30 06:02:36;;;;;;;153.85;40.70;;;;;;;2.46;76.93;95665.09;4978811;28;20109;-78
2022/12/30 06:05:01;;;;;;;133.38;38.47;;;;;;;2.52;76.45;95668.34;4973563;28;20532;-78
2022/12/30 06:07:26;;;;;;;73.53;24.63;;;;;;;2.32;75.95;95659.66;4954357;29;20454;-78
2022/12/30 06:09:52;;;;;;;64.20;24.70;;;;;;;2.36;76.51;95662.94;4938267;29;20038;-78
2022/12/30 06:12:17;;;;;;;47.30;19.17;;;;;;;2.28;76.45;95670.06;4954321;28;20042;-78
2022/12/30 06:14:43;;;;;;;26.67;15.00;;;;;;;2.26;75.93;95677.84;4938214;28;20047;-78
2022/12/30 06:17:08;;;;;;;26.35;14.57;;;;;;;2.20;75.81;95663.50;4954503;28;20074;-78
2022/12/30 06:19:34;;;;;;;35.92;19.35;;;;;;;2.27;75.40;95678.66;4957201;28;20086;-79
2022/12/30 06:21:59;;;;;;;24.30;14.13;;;;;;;2.16;75.62;95672.19;4973684;28;20038;-79
2022/12/30 06:24:24;;;;;;;19.08;11.27;;;;;;;2.12;76.49;95669.81;4973146;28;20037;-79
2022/12/30 06:26:50;;;;;;;23.23;12.05;;;;;;;2.10;76.66;95679.28;4974841;28;20046;-79
2022/12/30 06:29:15;;;;;;;24.30;13.75;;;;;;;2.05;76.51;95678.59;4974418;28;20524;-78
2022/12/30 06:31:41;;;;;;;21.48;12.75;;;;;;;2.22;75.84;95692.47;4973227;28;20493;-79
2022/12/30 06:34:06;;;;;;;29.23;17.67;;;;;;;2.09;75.86;95672.47;4972948;28;20105;-78
2022/12/30 06:36:32;;;;;;;30.80;17.58;;;;;;;2.12;76.21;95695.44;4989101;28;20026;-78
2022/12/30 06:38:58;;;;;;;29.35;17.83;;;;;;;2.15;76.41;95695.34;4973074;28;20042;-78
2022/12/30 06:41:23;;;;;;;30.83;17.65;;;;;;;2.22;76.40;95702.72;4975404;28;20035;-78
2022/12/30 06:43:49;;;;;;;39.95;21.50;;;;;;;2.21;76.69;95698.50;4987578;28;20131;-78
2022/12/30 06:46:14;;;;;;;74.57;33.78;;;;;;;2.29;76.50;95692.28;4953221;29;20082;-78
2022/12/30 06:48:40;;;;;;;65.95;32.30;;;;;;;2.32;77.20;95693.00;4954711;28;20042;-78
2022/12/30 06:51:05;;;;;;;48.70;24.73;;;;;;;2.34;76.97;95700.59;4953499;28;20432;-78
2022/12/30 06:53:30;;;;;;;38.40;19.83;;;;;;;2.38;77.35;95697.88;4991958;28;20034;-78
2022/12/30 06:55:56;;;;;;;17.52;10.18;;;;;;;2.38;77.56;95703.00;4984921;28;20032;-78
2022/12/30 06:58:21;;;;;;;37.92;19.80;;;;;;;2.29;76.95;95689.72;4971765;28;20051;-78
2022/12/30 07:00:47;;;;;;;31.35;16.48;;;;;;;2.46;76.48;95713.00;4940264;28;20042;-78
2022/12/30 07:03:13;;;;;;;30.30;16.15;;;;;;;2.31;76.77;95698.16;4972842;28;20035;-78
2022/12/30 07:05:38;;;;;;;43.28;23.08;;;;;;;2.38;76.94;95713.28;4973162;28;20464;-78
2022/12/30 07:08:04;;;;;;;41.53;22.23;;;;;;;2.42;77.39;95706.28;4974041;28;20489;-78
2022/12/30 07:10:29;;;;;;;40.25;21.05;;;;;;;2.53;77.10;95721.28;4972251;28;20448;-78
2022/12/30 07:12:55;;;;;;;33.40;20.08;;;;;;;2.48;77.47;95713.78;4972405;28;20045;-77
2022/12/30 07:15:20;;;;;;;36.30;19.63;;;;;;;2.55;77.01;95714.38;4972341;28;20035;-78
2022/12/30 07:17:46;;;;;;;27.10;16.55;;;;;;;2.65;76.46;95729.38;4972440;28;20480;-78
2022/12/30 07:20:12;;;;;;;37.53;21.05;;;;;;;2.68;75.94;95724.13;4971848;28;20425;-77
2022/12/30 07:22:38;;;;;;;35.08;21.77;;;;;;;2.83;75.45;95727.00;4973708;28;20038;-78
2022/12/30 07:25:04;;;;;;;31.05;18.85;;;;;;;2.77;75.67;95722.13;4972598;28;20023;-77
2022/12/30 07:27:30;;;;;;;24.48;16.60;;;;;;;2.71;75.93;95717.22;4956296;28;20034;-77
2022/12/30 07:29:55;;;;;;;24.15;14.43;;;;;;;2.79;75.51;95725.47;4971820;28;20420;-78
2022/12/30 07:32:20;;;;;;;23.38;14.70;;;;;;;2.85;75.64;95723.50;4955658;28;20432;-76
2022/12/30 07:34:46;;;;;;;19.60;13.02;;;;;;;2.83;75.45;95715.00;4971899;28;20397;-80
2022/12/30 07:37:11;;;;;;;19.63;12.50;;;;;;;2.80;76.40;95716.88;4955607;28;20098;-79
2022/12/30 07:39:38;;;;;;;25.75;15.45;;;;;;;2.56;76.46;95727.13;4972806;28;20034;-76
2022/12/30 07:42:03;;;;;;;22.50;12.63;;;;;;;2.56;76.47;95716.03;4968406;28;20024;-77
2022/12/30 07:44:29;;;;;;;19.30;11.75;;;;;;;2.51;76.98;95708.53;4965675;28;20070;-77
2022/12/30 07:46:55;;;;;;;21.85;13.65;;;;;;;2.44;76.18;95695.09;4947197;28;20073;-77
2022/12/30 07:49:21;;;;;;;18.42;11.77;;;;;;;2.66;76.03;95723.34;4965424;28;20074;-77
2022/12/30 07:51:46;;;;;;;29.00;16.80;;;;;;;2.55;76.69;95714.38;4964408;28;20046;-78
2022/12/30 07:54:12;;;;;;;25.55;15.60;;;;;;;2.67;77.33;95719.06;4983064;28;20541;-77
2022/12/30 07:56:37;;;;;;;28.73;17.50;;;;;;;2.84;77.22;95724.41;4928588;28;20054;-76
2022/12/30 07:59:03;;;;;;;26.67;16.17;;;;;;;2.88;77.36;95723.38;4966365;28;20046;-76
2022/12/30 08:01:28;;;;;;;23.92;16.00;;;;;;;2.75;77.66;95685.41;4965738;28;20041;-77
2022/12/30 08:03:54;;;;;;;53.95;26.17;;;;;;;2.87;77.48;95708.03;4949803;28;20449;-77
2022/12/30 08:06:20;;;;;;;51.17;25.20;;;;;;;3.12;77.64;95715.63;4946241;28;20081;-77
2022/12/30 08:08:45;;;;;;;52.25;24.35;;;;;;;3.19;77.42;95723.94;4964012;28;20078;-75
2022/12/30 08:11:11;;;;;;;51.88;25.15;;;;;;;3.30;77.24;95726.91;4950400;28;20110;-75
2022/12/30 08:13:38;;;;;;;60.53;31.17;;;;;;;3.46;77.00;95715.13;4949828;28;20038;-80
2022/12/30 08:16:05;;;;;;;70.07;38.65;;;;;;;3.11;78.93;95706.25;4947914;28;20023;-76
2022/12/30 08:18:30;;;;;;;64.43;35.63;;;;;;;3.16;79.45;95712.03;4981670;28;20027;-78
2022/12/30 08:21:01;;;;;;;53.50;30.98;;;;;;;3.26;79.46;95713.38;4967646;28;20532;-74
2022/12/30 08:23:29;;;;;;;46.22;27.38;;;;;;;3.57;79.04;95714.69;4962497;28;20564;-78
2022/12/30 08:25:54;;;;;;;46.75;26.52;;;;;;;3.93;77.73;95719.19;4968308;28;20497;-78
2022/12/30 08:28:19;;;;;;;38.58;20.95;;;;;;;4.12;77.19;95717.47;4969277;28;20027;-75
2022/12/30 08:30:45;;;;;;;37.28;20.17;;;;;;;4.26;76.78;95714.31;4966699;28;20035;-78
2022/12/30 08:33:10;;;;;;;42.97;23.80;;;;;;;4.44;76.21;95717.84;4966100;28;20027;-76
2022/12/30 08:35:36;;;;;;;38.95;22.20;;;;;;;4.64;75.54;95712.63;4965481;28;20521;-77
2022/12/30 08:38:01;;;;;;;48.28;28.77;;;;;;;4.69;75.49;95700.38;4959410;28;20489;-82
2022/12/30 08:40:27;;;;;;;49.13;29.98;;;;;;;4.83;75.30;95701.50;4963095;28;20393;-77
2022/12/30 08:42:52;;;;;;;52.45;33.15;;;;;;;4.90;74.99;95698.56;4962616;28;20034;-73
2022/12/30 08:45:18;;;;;;;55.35;34.35;;;;;;;5.11;74.97;95719.06;4977901;28;20030;-79
2022/12/30 08:47:43;;;;;;;49.05;32.75;;;;;;;5.24;74.46;95712.44;4975155;28;20489;-79
2022/12/30 08:50:08;;;;;;;51.05;31.38;;;;;;;5.39;74.57;95705.72;4966935;28;20101;-78
2022/12/30 08:52:35;;;;;;;51.63;30.65;;;;;;;5.60;74.41;95719.31;4965816;28;20027;-79
2022/12/30 08:55:01;;;;;;;50.22;31.25;;;;;;;5.76;73.92;95724.53;4978074;28;20043;-78
2022/12/30 08:57:26;;;;;;;44.00;27.90;;;;;;;5.86;73.83;95725.75;4962841;28;20356;-79
2022/12/30 08:59:51;;;;;;;44.60;29.38;;;;;;;6.00;73.21;95719.94;4950278;28;20048;-79
2022/12/30 09:02:17;;;;;;;42.78;28.30;;;;;;;6.08;73.13;95722.97;4939683;28;20409;-79
2022/12/30 09:04:42;;;;;;;42.88;27.30;;;;;;;6.26;72.32;95716.84;4948826;28;20422;-79
2022/12/30 09:07:08;;;;;;;40.95;27.85;;;;;;;6.43;71.79;95715.16;4963149;28;20031;-78
2022/12/30 09:09:33;;;;;;;42.05;28.23;;;;;;;6.65;70.75;95715.69;4946397;28;20425;-79
2022/12/30 09:11:59;;;;;;;42.75;27.55;;;;;;;6.81;69.63;95704.53;4959867;28;20027;-78
2022/12/30 09:14:24;;;;;;;47.40;30.40;;;;;;;6.84;69.23;95709.53;4969437;28;20026;-78
2022/12/30 09:16:50;;;;;;;44.83;29.38;;;;;;;6.90;69.97;95701.47;4956817;28;20093;-76
2022/12/30 09:19:15;;;;;;;43.10;30.05;;;;;;;6.99;69.92;95705.28;4972519;28;20113;-76
2022/12/30 09:21:41;;;;;;;51.60;33.08;;;;;;;7.12;69.07;95693.38;4972664;28;20070;-76
2022/12/30 09:24:07;;;;;;;48.35;31.38;;;;;;;7.14;69.14;95696.72;4990114;28;20040;-76
2022/12/30 09:26:32;;;;;;;43.10;28.55;;;;;;;7.22;69.06;95704.03;4988335;28;20049;-77
2022/12/30 09:28:58;;;;;;;43.58;26.60;;;;;;;7.34;67.97;95705.94;4972748;28;20058;-76
2022/12/30 09:31:24;;;;;;;38.83;26.67;;;;;;;7.34;67.81;95699.00;4989970;28;20063;-76
2022/12/30 09:33:49;;;;;;;38.58;26.48;;;;;;;7.42;67.86;95706.34;4971834;28;20061;-77
2022/12/30 09:36:15;;;;;;;38.75;27.10;;;;;;;7.40;67.73;95692.66;4972579;28;20031;-76
2022/12/30 09:38:40;;;;;;;35.78;24.70;;;;;;;7.57;66.28;95700.28;4971880;28;20035;-76
2022/12/30 09:43:15;;;;;;;39.25;26.10;;;;;;;7.23;67.08;95691.03;4971679;28;20041;-76
2022/12/30 09:44:20;;;;;;;37.63;24.90;;;;;;;7.42;66.83;95690.84;4971789;28;20502;-76
2022/12/30 09:46:48;;;;;;;39.25;25.17;;;;;;;7.49;66.39;95686.13;4970310;28;20038;-76
2022/12/30 09:49:33;;;;;;;35.75;23.95;;;;;;;7.60;65.79;95674.28;4987311;28;20027;-76
2022/12/30 09:52:13;;;;;;;34.38;24.08;;;;;;;7.70;65.79;95673.75;4968927;28;20031;-76
2022/12/30 09:54:40;;;;;;;32.97;22.77;;;;;;;7.78;64.89;95658.63;4966350;28;20031;-76
2022/12/30 09:59:55;;;;;;;38.58;24.58;;;;;;;7.80;65.47;95649.00;4969579;28;20042;-77
2022/12/30 10:02:32;;;;;;;42.90;27.08;;;;;;;7.81;65.29;95637.75;4966913;28;20113;-76
2022/12/30 10:04:59;;;;;;;48.28;29.80;;;;;;;8.00;65.54;95664.19;4951127;28;20050;-78
2022/12/30 10:07:45;;;;;;;39.20;25.20;;;;;;;7.98;64.93;95662.63;4949934;28;20022;-77
2022/12/30 10:10:15;;;;;;;42.63;27.13;;;;;;;8.07;64.73;95649.94;4967388;28;20040;-77
2022/12/30 10:12:53;;;;;;;34.60;24.63;;;;;;;8.14;65.05;95650.44;4968486;28;20070;-78
2022/12/30 10:15:37;;;;;;;37.67;24.70;;;;;;;8.26;64.61;95651.44;4956155;28;20039;-77
2022/12/30 10:18:25;;;;;;;32.35;22.13;;;;;;;8.28;64.31;95644.44;4974464;28;20063;-77
2022/12/30 10:20:52;;;;;;;36.13;22.83;;;;;;;8.44;63.92;95645.19;4974109;28;20034;-77
2022/12/30 10:23:17;;;;;;;31.90;20.48;;;;;;;8.44;63.89;95645.19;4972792;28;20038;-77
2022/12/30 10:26:05;;;;;;;26.33;19.75;;;;;;;8.26;63.40;95641.09;4970862;28;20038;-77
2022/12/30 10:28:37;;;;;;;30.98;19.25;;;;;;;8.42;63.33;95636.69;4953697;28;20099;-77
2022/12/30 10:31:07;;;;;;;29.35;20.23;;;;;;;8.58;62.69;95621.03;4966879;28;20386;-83
2022/12/30 10:33:35;;;;;;;31.08;21.05;;;;;;;8.63;62.79;95639.69;4955746;28;20035;-83
2022/12/30 10:36:08;;;;;;;30.00;20.25;;;;;;;8.66;62.76;95617.94;4937778;28;20035;-83
2022/12/30 10:38:33;;;;;;;33.95;21.80;;;;;;;8.74;63.18;95615.72;4958416;28;20042;-85
2022/12/30 10:41:25;;;;;;;52.45;28.38;;;;;;;8.85;62.72;95615.03;4953420;28;20294;-82
2022/12/30 10:43:56;;;;;;;;;;;;;;;8.88;62.12;95607.06;4957432;28;20039;-81
2022/12/30 10:46:22;;;;;;;27.98;18.88;;;;;;;8.84;62.24;95601.25;4961950;28;19932;-82
2022/12/30 10:48:57;;;;;;;28.35;18.95;;;;;;;8.93;62.36;95599.84;4960036;28;20035;-82
2022/12/30 10:51:24;;;;;;;35.53;22.50;;;;;;;9.03;62.32;95594.91;4965292;28;20118;-82
2022/12/30 10:53:50;;;;;;;32.08;21.13;;;;;;;9.05;62.12;95596.44;4953545;28;20031;-81
2022/12/30 10:56:26;;;;;;;43.75;26.98;;;;;;;9.14;62.48;95592.47;4966635;28;20054;-80
2022/12/30 10:58:53;;;;;;;32.35;21.70;;;;;;;9.10;61.38;95578.03;4950539;28;21361;-82
2022/12/30 11:01:24;;;;;;;33.45;21.70;;;;;;;9.14;61.55;95556.16;4948674;28;20590;-81
2022/12/30 11:03:51;;;;;;;33.83;19.75;;;;;;;9.29;61.35;95569.88;4949803;28;20221;-80
2022/12/30 11:06:23;;;;;;;23.88;17.27;;;;;;;9.38;60.46;95574.44;4966976;28;20046;-80
2022/12/30 11:08:49;;;;;;;34.25;19.45;;;;;;;9.38;60.48;95577.88;4966730;28;20042;-80
2022/12/30 11:11:15;;;;;;;26.77;19.45;;;;;;;9.40;60.50;95565.63;4966293;28;20409;-80
2022/12/30 11:16:29;;;;;;;27.48;18.70;;;;;;;9.47;60.51;95560.03;4966132;28;20371;-80
2022/12/30 11:18:58;;;;;;;27.23;17.88;;;;;;;9.37;59.97;95529.53;4982209;28;20046;-81
2022/12/30 11:21:25;;;;;;;24.05;17.45;;;;;;;9.55;59.94;95547.38;4950804;28;20043;-81
2022/12/30 11:23:58;;;;;;;27.50;19.15;;;;;;;9.57;60.23;95559.31;4950097;28;20046;-81
2022/12/30 11:26:27;;;;;;;31.50;18.92;;;;;;;9.66;60.19;95563.06;4965991;28;20457;-81
2022/12/30 11:29:06;;;;;;;28.75;19.50;;;;;;;9.63;59.86;95551.13;4966032;28;20043;-81
2022/12/30 11:31:36;;;;;;;24.38;16.92;;;;;;;9.72;59.12;95556.63;4964865;28;20038;-81
2022/12/30 11:34:02;;;;;;;28.65;18.08;;;;;;;9.74;59.13;95555.59;4966816;28;20131;-81
2022/12/30 11:36:28;;;;;;;25.88;17.50;;;;;;;9.83;58.97;95559.31;4964960;28;20042;-81
2022/12/30 11:38:57;;;;;;;29.33;19.92;;;;;;;9.90;58.62;95557.16;4967474;28;20035;-81
2022/12/30 11:41:27;;;;;;;26.50;18.23;;;;;;;9.94;58.07;95548.22;4967018;28;20195;-81
2022/12/30 11:43:59;;;;;;;26.55;16.73;;;;;;;10.02;58.26;95553.72;4976403;28;20063;-81
2022/12/30 11:46:37;;;;;;;25.42;18.05;;;;;;;10.08;58.25;95550.69;4962018;28;20033;-81
2022/12/30 11:49:23;;;;;;;26.60;17.95;;;;;;;10.12;58.56;95552.16;4961259;28;20023;-81
2022/12/30 11:51:50;;;;;;;42.15;23.15;;;;;;;10.08;58.21;95558.47;4976314;28;20047;-80
2022/12/30 11:54:26;;;;;;;31.45;19.85;;;;;;;10.09;57.74;95549.78;4970317;28;20035;-78
2022/12/30 11:56:55;;;;;;;38.05;21.35;;;;;;;10.16;57.38;95545.78;4971195;28;20114;-81
2022/12/30 11:59:31;;;;;;;38.63;21.48;;;;;;;10.18;57.39;95536.13;4970498;28;20509;-79
2022/12/30 12:01:59;;;;;;;41.17;21.73;;;;;;;10.26;57.58;95544.22;4967465;28;20039;-83
2022/12/30 12:04:35;;;;;;;26.40;17.27;;;;;;;10.15;56.67;95541.56;4963911;28;20031;-82
2022/12/30 12:07:02;;;;;;;27.15;18.35;;;;;;;10.15;57.31;95538.94;4960407;28;20039;-84
2022/12/30 12:09:36;;;;;;;36.83;21.65;;;;;;;10.05;57.52;95545.72;4968385;28;20031;-83
2022/12/30 12:12:05;;;;;;;24.85;17.85;;;;;;;9.96;56.80;95543.75;4952164;28;20031;-84
2022/12/30 12:14:39;;;;;;;26.45;18.70;;;;;;;10.15;56.86;95543.31;4974012;28;20038;-83
2022/12/30 12:17:26;;;;;;;27.77;18.48;;;;;;;10.27;57.17;95545.91;4971659;28;20035;-84
2022/12/30 12:20:05;;;;;;;26.70;17.48;;;;;;;10.15;56.59;95536.34;4970910;28;20695;-84
2022/12/30 12:22:55;;;;;;;27.50;18.17;;;;;;;10.29;57.17;95540.63;4956499;28;20030;-83
2022/12/30 12:25:23;;;;;;;30.03;18.43;;;;;;;10.28;57.29;95547.59;4970914;28;20067;-84
2022/12/30 12:27:50;;;;;;;27.45;17.63;;;;;;;10.25;57.57;95549.50;4951719;28;20035;-83